sensor_id;sensor_type;location;lat;lon;timestamp;pressure;altitude;pressure_sealevel;temperature;humidity
64908;BME280;69061;52.236;5.188;2023-08-31T00:01:01;100720.88;;;14.34;88.43
64908;BME280;69061;52.236;5.188;2023-08-31T00:03:30;100722.44;;;14.24;88.13
64908;BME280;69061;52.236;5.188;2023-08-31T00:05:57;100721.31;;;14.18;88.16
64908;BME280;69061;52.236;5.188;2023-08-31T00:08:24;100705.72;;;14.09;88.97
64908;BME280;69061;52.236;5.188;2023-08-31T00:10:56;100717.94;;;14.10;89.17
64908;BME280;69061;52.236;5.188;2023-08-31T00:13:23;100716.78;;;14.11;88.67
64908;BME280;69061;52.236;5.188;2023-08-31T00:15:54;100716.41;;;14.09;88.97
64908;BME280;69061;52.236;5.188;2023-08-31T00:18:20;100720.22;;;14.08;90.05
64908;BME280;69061;52.236;5.188;2023-08-31T00:20:49;100719.44;;;14.14;90.49
64908;BME280;69061;52.236;5.188;2023-08-31T00:23:16;100716.38;;;14.20;90.01
64908;BME280;69061;52.236;5.188;2023-08-31T00:25:44;100725.53;;;14.22;90.03
64908;BME280;69061;52.236;5.188;2023-08-31T00:28:13;100738.09;;;14.22;90.25
64908;BME280;69061;52.236;5.188;2023-08-31T00:30:41;100717.84;;;14.28;90.45
64908;BME280;69061;52.236;5.188;2023-08-31T00:33:10;100714.72;;;14.37;92.02
64908;BME280;69061;52.236;5.188;2023-08-31T00:35:37;100716.59;;;14.43;92.94
64908;BME280;69061;52.236;5.188;2023-08-31T00:38:10;100712.34;;;14.53;93.38
64908;BME280;69061;52.236;5.188;2023-08-31T00:40:39;100713.81;;;14.61;93.05
64908;BME280;69061;52.236;5.188;2023-08-31T00:43:07;100701.97;;;14.66;92.70
64908;BME280;69061;52.236;5.188;2023-08-31T00:45:34;100705.31;;;14.77;92.60
64908;BME280;69061;52.236;5.188;2023-08-31T00:48:01;100707.56;;;14.82;92.34
64908;BME280;69061;52.236;5.188;2023-08-31T00:50:28;100711.38;;;14.85;91.42
64908;BME280;69061;52.236;5.188;2023-08-31T00:52:55;100712.16;;;14.82;91.10
64908;BME280;69061;52.236;5.188;2023-08-31T00:55:23;100711.09;;;14.72;92.95
64908;BME280;69061;52.236;5.188;2023-08-31T00:57:52;100706.09;;;14.78;93.30
64908;BME280;69061;52.236;5.188;2023-08-31T01:00:21;100705.69;;;14.79;92.43
64908;BME280;69061;52.236;5.188;2023-08-31T01:02:57;100708.38;;;14.76;91.65
64908;BME280;69061;52.236;5.188;2023-08-31T01:05:34;100707.66;;;14.72;92.14
64908;BME280;69061;52.236;5.188;2023-08-31T01:08:14;100701.16;;;14.73;93.59
64908;BME280;69061;52.236;5.188;2023-08-31T01:10:51;100693.84;;;14.80;94.72
64908;BME280;69061;52.236;5.188;2023-08-31T01:13:24;100705.63;;;14.87;94.75
64908;BME280;69061;52.236;5.188;2023-08-31T01:15:53;100734.56;;;14.99;95.84
64908;BME280;69061;52.236;5.188;2023-08-31T01:18:22;100731.78;;;15.13;95.82
64908;BME280;69061;52.236;5.188;2023-08-31T01:20:58;100726.34;;;15.24;95.83
64908;BME280;69061;52.236;5.188;2023-08-31T01:26:06;100719.28;;;15.41;95.54
64908;BME280;69061;52.236;5.188;2023-08-31T01:28:33;100726.84;;;15.50;94.57
64908;BME280;69061;52.236;5.188;2023-08-31T01:31:03;100729.91;;;15.52;93.82
64908;BME280;69061;52.236;5.188;2023-08-31T01:33:31;100732.50;;;15.59;93.83
64908;BME280;69061;52.236;5.188;2023-08-31T01:36:00;100719.09;;;15.59;93.81
64908;BME280;69061;52.236;5.188;2023-08-31T01:38:30;100726.69;;;15.64;94.24
64908;BME280;69061;52.236;5.188;2023-08-31T01:41:03;100725.50;;;15.69;92.83
64908;BME280;69061;52.236;5.188;2023-08-31T01:43:33;100724.44;;;15.63;90.76
64908;BME280;69061;52.236;5.188;2023-08-31T01:46:02;100711.94;;;15.49;89.69
64908;BME280;69061;52.236;5.188;2023-08-31T01:48:29;100723.66;;;15.24;90.72
64908;BME280;69061;52.236;5.188;2023-08-31T01:50:56;100727.56;;;15.12;90.80
64908;BME280;69061;52.236;5.188;2023-08-31T01:53:22;100713.91;;;15.03;91.31
64908;BME280;69061;52.236;5.188;2023-08-31T01:55:49;100711.25;;;14.99;91.38
64908;BME280;69061;52.236;5.188;2023-08-31T01:58:16;100704.03;;;14.96;91.57
64908;BME280;69061;52.236;5.188;2023-08-31T02:00:44;100705.94;;;14.96;92.00
64908;BME280;69061;52.236;5.188;2023-08-31T02:03:11;100705.91;;;14.99;91.67
64908;BME280;69061;52.236;5.188;2023-08-31T02:05:37;100716.63;;;14.99;91.53
64908;BME280;69061;52.236;5.188;2023-08-31T02:08:05;100725.00;;;15.02;91.19
64908;BME280;69061;52.236;5.188;2023-08-31T02:10:31;100731.06;;;15.06;91.13
64908;BME280;69061;52.236;5.188;2023-08-31T02:12:59;100726.53;;;15.03;91.26
64908;BME280;69061;52.236;5.188;2023-08-31T02:15:26;100741.78;;;15.06;91.51
64908;BME280;69061;52.236;5.188;2023-08-31T02:17:54;100746.00;;;15.07;91.91
64908;BME280;69061;52.236;5.188;2023-08-31T02:20:21;100736.44;;;15.06;92.74
64908;BME280;69061;52.236;5.188;2023-08-31T02:22:47;100739.47;;;15.11;92.45
64908;BME280;69061;52.236;5.188;2023-08-31T02:25:15;100729.13;;;15.10;91.53
64908;BME280;69061;52.236;5.188;2023-08-31T02:27:42;100731.47;;;15.08;91.12
64908;BME280;69061;52.236;5.188;2023-08-31T02:30:09;100726.50;;;15.06;90.20
64908;BME280;69061;52.236;5.188;2023-08-31T02:32:36;100720.44;;;14.98;89.94
64908;BME280;69061;52.236;5.188;2023-08-31T02:35:06;100715.16;;;14.91;90.21
64908;BME280;69061;52.236;5.188;2023-08-31T02:37:32;100719.78;;;14.87;91.41
64908;BME280;69061;52.236;5.188;2023-08-31T02:39:59;100711.72;;;14.91;93.16
64908;BME280;69061;52.236;5.188;2023-08-31T02:42:26;100716.63;;;14.96;92.85
64908;BME280;69061;52.236;5.188;2023-08-31T02:44:53;100719.72;;;14.94;92.02
64908;BME280;69061;52.236;5.188;2023-08-31T02:47:20;100717.44;;;14.93;90.90
64908;BME280;69061;52.236;5.188;2023-08-31T02:49:46;100712.91;;;14.86;90.65
64908;BME280;69061;52.236;5.188;2023-08-31T02:52:15;100720.56;;;14.84;91.21
64908;BME280;69061;52.236;5.188;2023-08-31T02:54:42;100713.72;;;14.79;90.36
64908;BME280;69061;52.236;5.188;2023-08-31T02:57:09;100711.47;;;14.71;89.82
64908;BME280;69061;52.236;5.188;2023-08-31T02:59:36;100710.03;;;14.59;90.24
64908;BME280;69061;52.236;5.188;2023-08-31T03:02:03;100707.38;;;14.52;91.15
64908;BME280;69061;52.236;5.188;2023-08-31T03:04:30;100708.88;;;14.56;92.28
64908;BME280;69061;52.236;5.188;2023-08-31T03:06:57;100713.44;;;14.59;92.52
64908;BME280;69061;52.236;5.188;2023-08-31T03:09:26;100713.44;;;14.59;92.74
64908;BME280;69061;52.236;5.188;2023-08-31T03:11:53;100720.69;;;14.62;92.67
64908;BME280;69061;52.236;5.188;2023-08-31T03:14:20;100716.09;;;14.67;91.52
64908;BME280;69061;52.236;5.188;2023-08-31T03:16:46;100727.56;;;14.67;93.08
64908;BME280;69061;52.236;5.188;2023-08-31T03:19:14;100728.28;;;14.75;94.44
64908;BME280;69061;52.236;5.188;2023-08-31T03:21:41;100728.22;;;14.82;94.17
64908;BME280;69061;52.236;5.188;2023-08-31T03:24:08;100725.91;;;14.84;93.96
64908;BME280;69061;52.236;5.188;2023-08-31T03:26:36;100727.44;;;14.85;94.22
64908;BME280;69061;52.236;5.188;2023-08-31T03:29:03;100738.44;;;14.94;94.59
64908;BME280;69061;52.236;5.188;2023-08-31T03:31:30;100729.22;;;14.99;93.97
64908;BME280;69061;52.236;5.188;2023-08-31T03:33:57;100736.44;;;15.06;92.61
64908;BME280;69061;52.236;5.188;2023-08-31T03:36:24;100735.69;;;15.02;91.25
64908;BME280;69061;52.236;5.188;2023-08-31T03:38:51;100728.13;;;14.96;90.06
64908;BME280;69061;52.236;5.188;2023-08-31T03:41:18;100740.00;;;14.92;90.49
64908;BME280;69061;52.236;5.188;2023-08-31T03:43:46;100736.56;;;14.91;90.83
64908;BME280;69061;52.236;5.188;2023-08-31T03:46:13;100733.09;;;14.91;91.05
64908;BME280;69061;52.236;5.188;2023-08-31T03:48:39;100728.16;;;14.89;91.05
64908;BME280;69061;52.236;5.188;2023-08-31T03:51:06;100743.06;;;14.90;90.98
64908;BME280;69061;52.236;5.188;2023-08-31T03:53:33;100748.03;;;14.88;91.56
64908;BME280;69061;52.236;5.188;2023-08-31T03:56:00;100741.94;;;14.84;91.93
64908;BME280;69061;52.236;5.188;2023-08-31T03:58:29;100732.03;;;14.81;91.18
64908;BME280;69061;52.236;5.188;2023-08-31T04:00:57;100737.47;;;14.74;90.85
64908;BME280;69061;52.236;5.188;2023-08-31T04:03:25;100747.41;;;14.70;91.64
64908;BME280;69061;52.236;5.188;2023-08-31T04:05:55;100739.78;;;14.68;92.05
64908;BME280;69061;52.236;5.188;2023-08-31T04:08:22;100740.91;;;14.71;92.38
64908;BME280;69061;52.236;5.188;2023-08-31T04:10:49;100737.47;;;14.70;92.82
64908;BME280;69061;52.236;5.188;2023-08-31T04:13:16;100754.28;;;14.71;92.91
64908;BME280;69061;52.236;5.188;2023-08-31T04:15:43;100752.38;;;14.75;93.60
64908;BME280;69061;52.236;5.188;2023-08-31T04:18:11;100757.72;;;14.75;93.64
64908;BME280;69061;52.236;5.188;2023-08-31T04:20:38;100750.03;;;14.77;95.23
64908;BME280;69061;52.236;5.188;2023-08-31T04:23:05;100753.44;;;14.81;94.67
64908;BME280;69061;52.236;5.188;2023-08-31T04:25:32;100753.44;;;14.85;94.31
64908;BME280;69061;52.236;5.188;2023-08-31T04:27:59;100753.03;;;14.86;93.64
64908;BME280;69061;52.236;5.188;2023-08-31T04:30:26;100752.66;;;14.84;92.92
64908;BME280;69061;52.236;5.188;2023-08-31T04:32:52;100756.13;;;14.81;92.61
64908;BME280;69061;52.236;5.188;2023-08-31T04:35:21;100761.88;;;14.79;93.13
64908;BME280;69061;52.236;5.188;2023-08-31T04:37:47;100761.88;;;14.76;92.51
64908;BME280;69061;52.236;5.188;2023-08-31T04:40:14;100773.00;;;14.71;92.87
64908;BME280;69061;52.236;5.188;2023-08-31T04:42:41;100777.25;;;14.68;92.21
64908;BME280;69061;52.236;5.188;2023-08-31T04:45:09;100771.50;;;14.62;92.37
64908;BME280;69061;52.236;5.188;2023-08-31T04:47:36;100787.53;;;14.62;92.82
64908;BME280;69061;52.236;5.188;2023-08-31T04:50:04;100783.75;;;14.67;93.86
64908;BME280;69061;52.236;5.188;2023-08-31T04:52:33;100786.03;;;14.69;94.48
64908;BME280;69061;52.236;5.188;2023-08-31T04:55:02;100782.19;;;14.70;94.57
64908;BME280;69061;52.236;5.188;2023-08-31T04:57:29;100788.63;;;14.76;94.96
64908;BME280;69061;52.236;5.188;2023-08-31T04:59:56;100793.25;;;14.75;94.79
64908;BME280;69061;52.236;5.188;2023-08-31T05:02:23;100792.44;;;14.82;94.71
64908;BME280;69061;52.236;5.188;2023-08-31T05:04:50;100792.78;;;14.88;95.10
64908;BME280;69061;52.236;5.188;2023-08-31T05:07:17;100793.91;;;14.90;94.74
64908;BME280;69061;52.236;5.188;2023-08-31T05:09:45;100795.44;;;14.91;94.44
64908;BME280;69061;52.236;5.188;2023-08-31T05:12:12;100798.47;;;14.93;94.88
64908;BME280;69061;52.236;5.188;2023-08-31T05:14:39;100800.00;;;14.94;94.52
64908;BME280;69061;52.236;5.188;2023-08-31T05:17:07;100813.38;;;14.94;94.44
64908;BME280;69061;52.236;5.188;2023-08-31T05:19:34;100819.09;;;14.96;94.82
64908;BME280;69061;52.236;5.188;2023-08-31T05:22:02;100815.25;;;15.01;94.68
64908;BME280;69061;52.236;5.188;2023-08-31T05:24:29;100816.72;;;15.06;94.66
64908;BME280;69061;52.236;5.188;2023-08-31T05:26:58;100818.25;;;15.10;94.67
64908;BME280;69061;52.236;5.188;2023-08-31T05:29:25;100828.16;;;15.13;94.97
64908;BME280;69061;52.236;5.188;2023-08-31T05:31:52;100828.13;;;15.17;94.59
64908;BME280;69061;52.236;5.188;2023-08-31T05:34:20;100823.53;;;15.14;94.42
64908;BME280;69061;52.236;5.188;2023-08-31T05:36:49;100822.78;;;15.17;94.30
64908;BME280;69061;52.236;5.188;2023-08-31T05:39:15;100820.84;;;15.21;94.02
64908;BME280;69061;52.236;5.188;2023-08-31T05:41:43;100826.53;;;15.23;94.49
64908;BME280;69061;52.236;5.188;2023-08-31T05:44:11;100836.84;;;15.28;94.83
64908;BME280;69061;52.236;5.188;2023-08-31T05:46:37;100842.56;;;15.30;94.41
64908;BME280;69061;52.236;5.188;2023-08-31T05:49:06;100839.91;;;15.30;94.35
64908;BME280;69061;52.236;5.188;2023-08-31T05:51:33;100844.44;;;15.33;94.44
64908;BME280;69061;52.236;5.188;2023-08-31T05:54:00;100850.16;;;15.36;94.29
64908;BME280;69061;52.236;5.188;2023-08-31T05:56:27;100846.34;;;15.37;93.84
64908;BME280;69061;52.236;5.188;2023-08-31T05:58:53;100852.47;;;15.33;92.97
64908;BME280;69061;52.236;5.188;2023-08-31T06:01:22;100850.22;;;15.28;92.92
64908;BME280;69061;52.236;5.188;2023-08-31T06:03:49;100840.38;;;15.18;93.40
64908;BME280;69061;52.236;5.188;2023-08-31T06:06:16;100847.28;;;15.15;93.20
64908;BME280;69061;52.236;5.188;2023-08-31T06:08:42;100833.19;;;15.04;93.28
64908;BME280;69061;52.236;5.188;2023-08-31T06:11:09;100848.50;;;15.04;92.65
64908;BME280;69061;52.236;5.188;2023-08-31T06:13:38;100848.16;;;14.94;93.06
64908;BME280;69061;52.236;5.188;2023-08-31T06:16:05;100841.28;;;14.93;94.05
64908;BME280;69061;52.236;5.188;2023-08-31T06:18:33;100844.28;;;14.99;94.26
64908;BME280;69061;52.236;5.188;2023-08-31T06:21:00;100850.03;;;14.97;93.50
64908;BME280;69061;52.236;5.188;2023-08-31T06:23:27;100866.50;;;14.96;92.93
64908;BME280;69061;52.236;5.188;2023-08-31T06:25:54;100845.50;;;14.91;93.80
64908;BME280;69061;52.236;5.188;2023-08-31T06:28:21;100854.66;;;14.97;94.43
64908;BME280;69061;52.236;5.188;2023-08-31T06:30:48;100854.66;;;14.97;94.07
64908;BME280;69061;52.236;5.188;2023-08-31T06:33:15;100855.78;;;14.96;93.87
64908;BME280;69061;52.236;5.188;2023-08-31T06:35:45;100859.63;;;14.95;94.41
64908;BME280;69061;52.236;5.188;2023-08-31T06:38:13;100857.28;;;15.04;93.70
64908;BME280;69061;52.236;5.188;2023-08-31T06:40:41;100861.41;;;15.12;94.34
64908;BME280;69061;52.236;5.188;2023-08-31T06:43:08;100852.59;;;15.19;93.97
64908;BME280;69061;52.236;5.188;2023-08-31T06:45:35;100857.50;;;15.28;93.92
64908;BME280;69061;52.236;5.188;2023-08-31T06:48:03;100861.72;;;15.29;93.87
64908;BME280;69061;52.236;5.188;2023-08-31T06:50:30;100859.38;;;15.31;94.09
64908;BME280;69061;52.236;5.188;2023-08-31T06:52:58;100868.94;;;15.32;93.94
64908;BME280;69061;52.236;5.188;2023-08-31T06:55:24;100873.16;;;15.33;93.94
64908;BME280;69061;52.236;5.188;2023-08-31T06:57:51;100875.78;;;15.40;94.18
64908;BME280;69061;52.236;5.188;2023-08-31T07:00:19;100870.41;;;15.40;94.39
64908;BME280;69061;52.236;5.188;2023-08-31T07:02:46;100876.53;;;15.41;93.93
64908;BME280;69061;52.236;5.188;2023-08-31T07:05:12;100880.72;;;15.45;94.34
64908;BME280;69061;52.236;5.188;2023-08-31T07:07:40;100885.59;;;15.54;94.45
64908;BME280;69061;52.236;5.188;2023-08-31T07:10:08;100885.19;;;15.59;94.00
64908;BME280;69061;52.236;5.188;2023-08-31T07:12:35;100885.94;;;15.60;94.22
64908;BME280;69061;52.236;5.188;2023-08-31T07:15:03;100894.69;;;15.68;94.11
64908;BME280;69061;52.236;5.188;2023-08-31T07:17:30;100887.34;;;15.75;94.31
64908;BME280;69061;52.236;5.188;2023-08-31T07:19:57;100892.63;;;15.86;93.68
64908;BME280;69061;52.236;5.188;2023-08-31T07:22:24;100898.31;;;15.92;93.28
64908;BME280;69061;52.236;5.188;2023-08-31T07:24:51;100896.78;;;15.94;92.83
64908;BME280;69061;52.236;5.188;2023-08-31T07:27:19;100900.97;;;15.95;91.99
64908;BME280;69061;52.236;5.188;2023-08-31T07:29:47;100907.09;;;15.96;91.88
64908;BME280;69061;52.236;5.188;2023-08-31T07:32:14;100908.94;;;16.03;92.15
64908;BME280;69061;52.236;5.188;2023-08-31T07:34:41;100911.59;;;16.06;93.40
64908;BME280;69061;52.236;5.188;2023-08-31T07:37:07;100918.09;;;16.09;94.20
64908;BME280;69061;52.236;5.188;2023-08-31T07:39:34;100919.59;;;16.10;94.20
64908;BME280;69061;52.236;5.188;2023-08-31T07:42:01;100930.63;;;16.15;93.67
64908;BME280;69061;52.236;5.188;2023-08-31T07:44:29;100932.16;;;16.16;95.10
64908;BME280;69061;52.236;5.188;2023-08-31T07:46:56;100926.03;;;16.20;95.92
64908;BME280;69061;52.236;5.188;2023-08-31T07:49:23;100928.31;;;16.21;95.82
64908;BME280;69061;52.236;5.188;2023-08-31T07:51:50;100923.66;;;16.25;96.23
64908;BME280;69061;52.236;5.188;2023-08-31T07:54:20;100921.28;;;16.35;98.23
64908;BME280;69061;52.236;5.188;2023-08-31T07:56:48;100925.03;;;16.41;98.35
64908;BME280;69061;52.236;5.188;2023-08-31T07:59:16;100931.38;;;16.54;98.62
64908;BME280;69061;52.236;5.188;2023-08-31T08:01:44;100945.41;;;16.69;98.69
64908;BME280;69061;52.236;5.188;2023-08-31T08:04:11;100936.06;;;16.81;97.83
64908;BME280;69061;52.236;5.188;2023-08-31T08:06:38;100930.28;;;16.82;95.45
64908;BME280;69061;52.236;5.188;2023-08-31T08:09:07;100940.97;;;16.86;94.02
64908;BME280;69061;52.236;5.188;2023-08-31T08:11:34;100942.13;;;16.85;94.65
64908;BME280;69061;52.236;5.188;2023-08-31T08:14:01;100941.72;;;16.90;93.70
64908;BME280;69061;52.236;5.188;2023-08-31T08:16:28;100947.03;;;16.94;93.92
64908;BME280;69061;52.236;5.188;2023-08-31T08:18:56;100939.50;;;17.12;93.87
64908;BME280;69061;52.236;5.188;2023-08-31T08:21:23;100941.38;;;17.15;92.33
64908;BME280;69061;52.236;5.188;2023-08-31T08:23:50;100936.47;;;17.10;92.49
64908;BME280;69061;52.236;5.188;2023-08-31T08:26:17;100947.22;;;17.10;93.21
64908;BME280;69061;52.236;5.188;2023-08-31T08:28:44;100946.81;;;17.12;92.41
64908;BME280;69061;52.236;5.188;2023-08-31T08:31:11;100945.97;;;17.19;92.81
64908;BME280;69061;52.236;5.188;2023-08-31T08:33:37;100953.44;;;17.31;92.19
64908;BME280;69061;52.236;5.188;2023-08-31T08:36:07;100953.09;;;17.29;91.50
64908;BME280;69061;52.236;5.188;2023-08-31T08:38:33;100950.81;;;17.27;90.54
64908;BME280;69061;52.236;5.188;2023-08-31T08:41:04;100957.72;;;17.28;91.40
64908;BME280;69061;52.236;5.188;2023-08-31T08:43:33;100959.50;;;17.39;91.36
64908;BME280;69061;52.236;5.188;2023-08-31T08:46:03;100967.38;;;17.49;91.01
64908;BME280;69061;52.236;5.188;2023-08-31T08:48:32;100977.19;;;17.60;90.89
64908;BME280;69061;52.236;5.188;2023-08-31T08:51:01;100980.88;;;17.70;89.15
64908;BME280;69061;52.236;5.188;2023-08-31T08:53:30;100978.72;;;17.61;87.44
64908;BME280;69061;52.236;5.188;2023-08-31T08:55:58;100967.47;;;17.42;85.60
64908;BME280;69061;52.236;5.188;2023-08-31T08:58:24;100969.91;;;17.33;86.21
64908;BME280;69061;52.236;5.188;2023-08-31T09:00:52;100971.88;;;17.29;86.03
64908;BME280;69061;52.236;5.188;2023-08-31T09:03:20;100976.84;;;17.30;85.47
64908;BME280;69061;52.236;5.188;2023-08-31T09:05:50;100963.63;;;17.43;85.13
64908;BME280;69061;52.236;5.188;2023-08-31T09:08:17;100962.59;;;17.61;84.45
64908;BME280;69061;52.236;5.188;2023-08-31T09:10:45;100971.66;;;17.71;84.50
64908;BME280;69061;52.236;5.188;2023-08-31T09:13:14;100974.72;;;17.73;84.11
64908;BME280;69061;52.236;5.188;2023-08-31T09:15:46;100969.09;;;17.87;84.84
64908;BME280;69061;52.236;5.188;2023-08-31T09:18:15;100979.59;;;18.05;83.03
64908;BME280;69061;52.236;5.188;2023-08-31T09:20:43;100975.53;;;18.17;82.00
64908;BME280;69061;52.236;5.188;2023-08-31T09:23:11;100982.47;;;18.38;82.74
64908;BME280;69061;52.236;5.188;2023-08-31T09:25:41;100982.81;;;18.60;81.53
64908;BME280;69061;52.236;5.188;2023-08-31T09:28:12;100983.38;;;18.72;80.54
64908;BME280;69061;52.236;5.188;2023-08-31T09:30:39;100980.38;;;18.86;81.08
64908;BME280;69061;52.236;5.188;2023-08-31T09:33:07;100974.25;;;19.06;79.59
64908;BME280;69061;52.236;5.188;2023-08-31T09:35:38;100975.13;;;19.19;78.59
64908;BME280;69061;52.236;5.188;2023-08-31T09:38:08;100981.69;;;19.34;77.24
64908;BME280;69061;52.236;5.188;2023-08-31T09:40:36;100982.91;;;19.50;77.90
64908;BME280;69061;52.236;5.188;2023-08-31T09:43:03;100983.56;;;19.71;78.37
64908;BME280;69061;52.236;5.188;2023-08-31T09:45:33;100974.38;;;19.84;76.42
64908;BME280;69061;52.236;5.188;2023-08-31T09:48:02;100979.03;;;19.84;75.60
64908;BME280;69061;52.236;5.188;2023-08-31T09:50:30;100983.06;;;19.76;75.33
64908;BME280;69061;52.236;5.188;2023-08-31T09:53:00;100978.25;;;19.67;74.30
64908;BME280;69061;52.236;5.188;2023-08-31T09:55:30;100979.47;;;19.82;76.14
64908;BME280;69061;52.236;5.188;2023-08-31T09:57:59;100981.44;;;20.11;75.13
64908;BME280;69061;52.236;5.188;2023-08-31T10:00:27;100988.53;;;20.34;73.74
64908;BME280;69061;52.236;5.188;2023-08-31T10:02:56;100983.50;;;20.49;71.81
64908;BME280;69061;52.236;5.188;2023-08-31T10:05:24;100990.44;;;20.63;68.01
64908;BME280;69061;52.236;5.188;2023-08-31T10:07:51;100979.94;;;20.69;67.64
64908;BME280;69061;52.236;5.188;2023-08-31T10:10:18;100988.56;;;20.77;66.18
64908;BME280;69061;52.236;5.188;2023-08-31T10:12:48;100981.03;;;20.84;66.04
64908;BME280;69061;52.236;5.188;2023-08-31T10:15:17;100983.50;;;20.79;64.93
64908;BME280;69061;52.236;5.188;2023-08-31T10:17:44;100977.63;;;20.67;65.63
64908;BME280;69061;52.236;5.188;2023-08-31T10:20:15;100984.00;;;20.61;65.82
64908;BME280;69061;52.236;5.188;2023-08-31T10:22:42;100990.03;;;20.65;65.48
64908;BME280;69061;52.236;5.188;2023-08-31T10:25:10;100992.47;;;20.76;63.98
64908;BME280;69061;52.236;5.188;2023-08-31T10:27:38;100983.41;;;20.82;60.12
64908;BME280;69061;52.236;5.188;2023-08-31T10:30:20;100983.09;;;20.93;60.47
64908;BME280;69061;52.236;5.188;2023-08-31T10:35:50;100988.19;;;21.30;60.50
64908;BME280;69061;52.236;5.188;2023-08-31T10:38:24;100993.16;;;21.44;57.87
64908;BME280;69061;52.236;5.188;2023-08-31T10:41:02;100994.00;;;21.67;60.22
64908;BME280;69061;52.236;5.188;2023-08-31T10:43:43;100993.84;;;21.96;59.74
64908;BME280;69061;52.236;5.188;2023-08-31T10:46:32;100992.78;;;22.16;57.59
64908;BME280;69061;52.236;5.188;2023-08-31T10:49:00;100998.69;;;22.36;55.20
64908;BME280;69061;52.236;5.188;2023-08-31T10:51:31;100995.81;;;22.53;54.53
64908;BME280;69061;52.236;5.188;2023-08-31T10:54:09;101017.09;;;22.64;53.49
64908;BME280;69061;52.236;5.188;2023-08-31T10:59:44;101025.97;;;22.29;54.67
64908;BME280;69061;52.236;5.188;2023-08-31T11:02:27;101028.97;;;22.09;57.31
64908;BME280;69061;52.236;5.188;2023-08-31T11:04:55;101016.34;;;21.93;57.66
64908;BME280;69061;52.236;5.188;2023-08-31T11:07:26;101017.50;;;22.05;59.25
64908;BME280;69061;52.236;5.188;2023-08-31T11:10:06;101018.66;;;22.17;56.60
64908;BME280;69061;52.236;5.188;2023-08-31T11:12:33;101014.22;;;22.23;58.84
64908;BME280;69061;52.236;5.188;2023-08-31T11:15:00;101019.59;;;22.36;58.44
64908;BME280;69061;52.236;5.188;2023-08-31T11:17:29;101016.56;;;22.56;58.21
64908;BME280;69061;52.236;5.188;2023-08-31T11:19:56;101011.06;;;22.69;57.13
64908;BME280;69061;52.236;5.188;2023-08-31T11:22:24;101012.66;;;22.79;56.15
64908;BME280;69061;52.236;5.188;2023-08-31T11:24:51;101002.56;;;22.80;56.89
64908;BME280;69061;52.236;5.188;2023-08-31T11:27:19;101005.94;;;22.93;57.27
64908;BME280;69061;52.236;5.188;2023-08-31T11:29:47;101005.09;;;23.05;56.75
64908;BME280;69061;52.236;5.188;2023-08-31T11:32:14;101009.72;;;23.18;55.30
64908;BME280;69061;52.236;5.188;2023-08-31T11:34:43;100996.81;;;23.41;55.67
64908;BME280;69061;52.236;5.188;2023-08-31T11:37:11;101008.16;;;23.58;54.54
64908;BME280;69061;52.236;5.188;2023-08-31T11:39:42;101011.38;;;23.75;53.53
64908;BME280;69061;52.236;5.188;2023-08-31T11:42:09;101002.75;;;23.85;51.82
64908;BME280;69061;52.236;5.188;2023-08-31T11:44:36;101005.94;;;23.84;50.03
64908;BME280;69061;52.236;5.188;2023-08-31T11:47:03;101011.06;;;23.82;49.73
64908;BME280;69061;52.236;5.188;2023-08-31T11:49:30;101009.38;;;23.66;50.83
64908;BME280;69061;52.236;5.188;2023-08-31T11:51:57;101010.69;;;23.43;49.82
64908;BME280;69061;52.236;5.188;2023-08-31T11:54:25;101016.97;;;23.30;49.97
64908;BME280;69061;52.236;5.188;2023-08-31T11:56:54;101017.63;;;23.12;47.92
64908;BME280;69061;52.236;5.188;2023-08-31T11:59:24;101020.88;;;22.98;49.08
64908;BME280;69061;52.236;5.188;2023-08-31T12:01:50;101021.06;;;23.03;48.07
64908;BME280;69061;52.236;5.188;2023-08-31T12:04:20;101029.56;;;23.15;47.28
64908;BME280;69061;52.236;5.188;2023-08-31T12:06:50;101025.38;;;23.23;48.01
64908;BME280;69061;52.236;5.188;2023-08-31T12:09:20;101016.03;;;23.24;46.59
64908;BME280;69061;52.236;5.188;2023-08-31T12:11:53;101016.38;;;23.26;45.47
64908;BME280;69061;52.236;5.188;2023-08-31T12:14:20;101018.72;;;23.15;45.21
64908;BME280;69061;52.236;5.188;2023-08-31T12:16:47;101009.84;;;23.14;46.26
64908;BME280;69061;52.236;5.188;2023-08-31T12:19:15;101020.03;;;23.10;45.87
64908;BME280;69061;52.236;5.188;2023-08-31T12:21:43;101018.84;;;23.11;45.17
64908;BME280;69061;52.236;5.188;2023-08-31T12:24:11;101009.16;;;23.01;46.13
64908;BME280;69061;52.236;5.188;2023-08-31T12:26:38;101018.03;;;23.01;46.98
64908;BME280;69061;52.236;5.188;2023-08-31T12:29:07;101023.31;;;23.05;46.15
64908;BME280;69061;52.236;5.188;2023-08-31T12:31:35;101027.09;;;23.08;45.08
64908;BME280;69061;52.236;5.188;2023-08-31T12:34:02;101022.56;;;23.04;46.03
64908;BME280;69061;52.236;5.188;2023-08-31T12:36:31;101020.47;;;23.09;47.05
64908;BME280;69061;52.236;5.188;2023-08-31T12:38:58;101018.41;;;23.13;45.71
64908;BME280;69061;52.236;5.188;2023-08-31T12:41:27;101026.13;;;23.24;48.16
64908;BME280;69061;52.236;5.188;2023-08-31T12:43:54;101033.09;;;23.34;48.28
64908;BME280;69061;52.236;5.188;2023-08-31T12:46:22;101032.69;;;23.45;48.19
64908;BME280;69061;52.236;5.188;2023-08-31T12:48:49;101026.50;;;23.44;46.20
64908;BME280;69061;52.236;5.188;2023-08-31T12:51:16;101029.66;;;23.43;45.75
64908;BME280;69061;52.236;5.188;2023-08-31T12:53:43;101037.69;;;23.46;45.73
64908;BME280;69061;52.236;5.188;2023-08-31T12:56:10;101028.75;;;23.46;44.20
64908;BME280;69061;52.236;5.188;2023-08-31T12:58:38;101026.38;;;23.48;46.30
64908;BME280;69061;52.236;5.188;2023-08-31T13:01:06;101039.03;;;23.51;45.78
64908;BME280;69061;52.236;5.188;2023-08-31T13:03:34;101036.44;;;23.47;45.99